Time;durP1;ratioP1;P1;durP2;ratioP2;P2;SDS_P1;SDS_P2;PMS_P1;PMS_P2;Temp;Humidity;BMP_temperature;BMP_pressure;BME280_temperature;BME280_humidity;BME280_pressure;Samples;Min_cycle;Max_cycle;Signal;HPM_P1;HPM_P2
2021/03/12 00:00:35;;;;;;;10.35;1.65;;;;;;;5.30;78.87;99174.16;5099875;28;20048;-75
2021/03/12 00:03:04;;;;;;;10.70;1.63;;;;;;;5.14;79.21;99150.34;5081466;28;20052;-75
2021/03/12 00:05:30;;;;;;;8.90;1.70;;;;;;;5.29;79.58;99177.75;5100708;28;20051;-77
2021/03/12 00:07:57;;;;;;;6.75;1.50;;;;;;;5.31;78.59;99180.31;5100619;28;20665;-76
2021/03/12 00:10:26;;;;;;;10.98;1.73;;;;;;;5.27;77.97;99174.34;5099064;28;20081;-76
2021/03/12 00:12:53;;;;;;;6.38;1.60;;;;;;;5.25;77.84;99185.94;5098595;28;20045;-79
2021/03/12 00:15:21;;;;;;;9.57;2.05;;;;;;;5.33;77.63;99188.19;5080840;28;20059;-75
2021/03/12 00:17:49;;;;;;;8.20;1.50;;;;;;;5.35;76.80;99195.09;5106565;28;20052;-75
2021/03/12 00:20:24;;;;;;;9.60;2.45;;;;;;;5.39;76.24;99193.13;5103540;28;20743;-75
2021/03/12 00:22:51;;;;;;;14.05;1.85;;;;;;;5.40;76.78;99210.72;5100977;28;20052;-76
2021/03/12 00:25:26;;;;;;;6.43;1.55;;;;;;;5.39;76.41;99215.16;5098183;28;20113;-76
2021/03/12 00:27:52;;;;;;;8.52;1.67;;;;;;;5.43;76.52;99213.19;5096308;28;20048;-76
2021/03/12 00:30:19;;;;;;;10.35;2.25;;;;;;;5.26;76.65;99214.97;5097472;28;20052;-76
2021/03/12 00:32:46;;;;;;;6.88;1.45;;;;;;;5.46;75.86;99233.34;5099397;28;20121;-75
2021/03/12 00:35:12;;;;;;;11.75;2.10;;;;;;;5.43;75.52;99218.47;5083178;28;20564;-77
2021/03/12 00:37:39;;;;;;;10.35;2.78;;;;;;;5.37;76.69;99224.09;5100662;28;20055;-76
2021/03/12 00:40:14;;;;;;;7.43;1.80;;;;;;;5.25;77.30;99229.16;5065169;28;20056;-75
2021/03/12 00:42:42;;;;;;;11.05;2.58;;;;;;;5.28;78.09;99234.25;5080724;28;20097;-75
2021/03/12 00:45:11;;;;;;;6.93;1.58;;;;;;;5.24;78.53;99268.91;5063632;28;20056;-76
2021/03/12 00:47:37;;;;;;;11.40;2.00;;;;;;;5.18;78.97;99267.44;5099434;28;20070;-76
2021/03/12 00:50:04;;;;;;;12.13;2.70;;;;;;;5.16;80.67;99278.09;5098874;28;20467;-75
2021/03/12 00:52:31;;;;;;;8.95;2.13;;;;;;;5.14;80.57;99282.59;5098487;28;20051;-77
2021/03/12 00:54:58;;;;;;;10.35;2.40;;;;;;;5.08;81.45;99290.00;5080332;28;20097;-76
2021/03/12 00:57:25;;;;;;;12.95;2.58;;;;;;;5.15;82.03;99283.47;5097821;28;20048;-76
2021/03/12 00:59:51;;;;;;;11.30;2.60;;;;;;;5.16;80.77;99303.69;5096903;28;20135;-76
2021/03/12 01:02:17;;;;;;;8.98;1.90;;;;;;;4.47;81.71;99201.44;5096758;28;20109;-75
2021/03/12 01:04:43;;;;;;;22.63;2.42;;;;;;;5.00;81.57;99303.63;5079910;28;20130;-76
2021/03/12 01:07:10;;;;;;;11.90;2.40;;;;;;;4.97;83.15;99303.81;5099431;28;20055;-76
2021/03/12 01:09:36;;;;;;;12.93;2.55;;;;;;;4.91;84.49;99351.72;5082211;28;20052;-76
2021/03/12 01:12:06;;;;;;;15.27;3.45;;;;;;;4.74;84.57;99295.28;5099594;28;20117;-76
2021/03/12 01:14:33;;;;;;;14.05;2.67;;;;;;;4.68;85.64;99304.34;5078897;28;20114;-76
2021/03/12 01:16:59;;;;;;;9.45;2.35;;;;;;;4.76;85.92;99318.03;5096376;28;20052;-75
2021/03/12 01:19:26;;;;;;;13.88;2.85;;;;;;;4.74;85.50;99319.06;5078229;28;20066;-75
2021/03/12 01:21:52;;;;;;;19.00;2.83;;;;;;;4.74;86.09;99309.31;5095770;28;20056;-75
2021/03/12 01:24:18;;;;;;;11.35;2.50;;;;;;;4.72;85.86;99305.91;5096172;28;20048;-76
2021/03/12 01:26:45;;;;;;;17.20;3.53;;;;;;;4.78;84.87;99323.25;5096283;28;20097;-76
2021/03/12 01:29:11;;;;;;;14.65;4.15;;;;;;;4.74;85.61;99325.19;5095512;28;20441;-76
2021/03/12 01:31:37;;;;;;;22.58;4.20;;;;;;;4.69;85.31;99311.34;5096180;28;20051;-76
2021/03/12 01:34:03;;;;;;;17.67;2.85;;;;;;;4.76;84.67;99302.16;5096203;28;20048;-76
2021/03/12 01:36:30;;;;;;;14.15;3.13;;;;;;;4.70;84.75;99299.00;5095930;28;20056;-76
2021/03/12 01:38:56;;;;;;;25.23;3.28;;;;;;;4.86;83.98;99323.69;5095971;28;20054;-76
2021/03/12 01:41:22;;;;;;;14.50;2.45;;;;;;;4.87;83.26;99324.56;5095876;28;20051;-75
2021/03/12 01:43:48;;;;;;;18.73;3.45;;;;;;;4.85;82.58;99315.88;5078171;28;20064;-76
2021/03/12 01:46:15;;;;;;;17.65;3.53;;;;;;;4.80;82.89;99331.94;5094850;28;20060;-75
2021/03/12 01:48:41;;;;;;;16.75;3.60;;;;;;;4.74;83.09;99330.47;5077917;28;20048;-75
2021/03/12 01:51:09;;;;;;;15.25;2.55;;;;;;;4.78;82.04;99330.34;5095615;28;20055;-75
2021/03/12 01:53:37;;;;;;;15.05;2.65;;;;;;;4.76;82.51;99333.88;5094557;28;20048;-76
2021/03/12 01:56:05;;;;;;;19.05;3.25;;;;;;;4.70;82.21;99322.78;5094581;28;20136;-75
2021/03/12 01:58:32;;;;;;;18.05;3.03;;;;;;;4.74;81.05;99325.19;5077767;28;20101;-75
2021/03/12 02:00:59;;;;;;;18.33;2.72;;;;;;;4.70;82.05;99318.38;5095342;28;20056;-75
2021/03/12 02:03:32;;;;;;;21.02;3.88;;;;;;;4.73;81.66;99335.81;5095674;28;20439;-76
2021/03/12 02:06:03;;;;;;;19.73;2.42;;;;;;;4.81;82.17;99338.97;5095689;28;20047;-75
2021/03/12 02:08:29;;;;;;;17.30;4.20;;;;;;;4.81;81.38;99332.81;5095212;28;20106;-75
2021/03/12 02:10:56;;;;;;;16.08;3.15;;;;;;;4.86;80.69;99355.44;5095427;28;20052;-75
2021/03/12 02:13:36;;;;;;;20.25;2.70;;;;;;;4.82;81.22;99350.38;5095622;28;20101;-75
2021/03/12 02:16:09;;;;;;;14.18;2.78;;;;;;;4.77;81.53;99350.63;5095161;28;20460;-75
2021/03/12 02:18:54;;;;;;;17.23;2.75;;;;;;;4.79;81.77;99353.19;5077543;28;20345;-75
2021/03/12 02:21:39;;;;;;;23.30;3.03;;;;;;;4.86;79.63;99357.22;5094625;28;20044;-75
2021/03/12 02:24:18;;;;;;;19.90;3.13;;;;;;;4.88;80.73;99364.16;5095143;28;20345;-75
2021/03/12 02:26:44;;;;;;;14.55;2.80;;;;;;;4.98;78.55;99364.56;5095343;28;20062;-76
2021/03/12 02:29:14;;;;;;;17.25;2.85;;;;;;;5.00;79.31;99361.81;5095107;28;20188;-76
2021/03/12 02:31:41;;;;;;;15.00;2.65;;;;;;;5.02;79.42;99365.25;5095617;28;20048;-76
2021/03/12 02:34:10;;;;;;;21.02;4.10;;;;;;;4.95;79.38;99348.00;5095333;28;20127;-75
2021/03/12 02:36:41;;;;;;;13.80;3.17;;;;;;;5.03;78.65;99361.66;5095330;28;20372;-75
2021/03/12 02:39:12;;;;;;;14.13;1.88;;;;;;;5.09;79.17;99364.00;5095324;28;20052;-76
2021/03/12 02:41:39;;;;;;;16.58;3.00;;;;;;;5.12;79.11;99369.13;5095386;28;20052;-75
2021/03/12 02:44:07;;;;;;;13.48;2.33;;;;;;;5.12;79.23;99371.78;5095157;28;20044;-75
2021/03/12 02:46:35;;;;;;;23.38;4.25;;;;;;;5.13;79.51;99383.22;5094993;28;20113;-75
2021/03/12 02:49:04;;;;;;;15.77;3.47;;;;;;;4.95;79.90;99364.69;5094920;28;20076;-76
2021/03/12 02:51:30;;;;;;;26.30;2.75;;;;;;;4.95;82.61;99372.63;5094809;28;20127;-75
2021/03/12 02:53:57;;;;;;;22.15;3.70;;;;;;;4.85;82.27;99374.03;5077047;28;20063;-76
2021/03/12 02:56:24;;;;;;;15.90;2.60;;;;;;;4.86;81.56;99370.47;5077218;28;20064;-76
2021/03/12 02:58:50;;;;;;;20.48;2.78;;;;;;;4.80;81.97;99378.69;5076920;28;20433;-75
2021/03/12 03:01:18;;;;;;;18.25;2.75;;;;;;;4.76;82.53;99384.13;5077057;28;20121;-75
2021/03/12 03:03:46;;;;;;;14.65;2.30;;;;;;;4.76;83.80;99381.47;5094653;28;20453;-75
2021/03/12 03:06:15;;;;;;;12.65;2.22;;;;;;;4.74;83.90;99388.63;5093491;28;20054;-75
2021/03/12 03:08:46;;;;;;;15.05;3.45;;;;;;;4.71;83.50;99388.78;5093753;28;20105;-75
2021/03/12 03:11:14;;;;;;;21.38;3.60;;;;;;;4.74;83.71;99385.16;5095048;28;20048;-75
2021/03/12 03:13:56;;;;;;;14.73;2.55;;;;;;;4.79;82.97;99398.13;5094017;28;20083;-75
2021/03/12 03:16:30;;;;;;;18.00;3.00;;;;;;;4.75;82.64;99395.63;5093346;28;20457;-75
2021/03/12 03:18:59;;;;;;;13.20;2.95;;;;;;;4.81;83.34;99396.25;5094582;28;20052;-75
2021/03/12 03:21:26;;;;;;;22.52;3.03;;;;;;;4.79;82.69;99396.31;5094587;28;20044;-75
2021/03/12 03:23:53;;;;;;;17.10;2.92;;;;;;;4.61;82.07;99372.53;5094648;28;20052;-75
2021/03/12 03:26:20;;;;;;;28.83;5.35;;;;;;;4.68;83.18;99388.09;5060100;28;20052;-76
2021/03/12 03:28:46;;;;;;;19.17;3.40;;;;;;;4.80;81.84;99399.84;5076628;28;20113;-75
2021/03/12 03:31:12;;;;;;;20.40;3.25;;;;;;;4.86;81.42;99403.03;5076976;28;20349;-75
2021/03/12 03:33:38;;;;;;;16.17;2.60;;;;;;;4.83;82.51;99389.09;5098435;28;20048;-75
2021/03/12 03:36:05;;;;;;;17.65;2.70;;;;;;;4.88;82.34;99392.38;5083133;28;20101;-76
2021/03/12 03:38:32;;;;;;;19.55;3.08;;;;;;;4.95;82.57;99393.78;5083846;28;20066;-76
2021/03/12 03:41:04;;;;;;;17.00;3.53;;;;;;;4.88;81.90;99392.38;5081900;28;20055;-76
2021/03/12 03:43:32;;;;;;;19.40;2.45;;;;;;;4.88;81.53;99395.91;5097934;28;20051;-75
2021/03/12 03:46:02;;;;;;;15.77;2.63;;;;;;;4.87;81.49;99404.75;5096743;28;20413;-75
2021/03/12 03:48:29;;;;;;;17.52;5.00;;;;;;;4.85;80.34;99395.19;5096680;28;20052;-76
2021/03/12 03:50:56;;;;;;;18.80;3.33;;;;;;;4.87;80.84;99398.59;5096791;28;20440;-76
2021/03/12 03:53:22;;;;;;;21.35;3.15;;;;;;;4.92;81.81;99406.31;5096756;28;20071;-76
2021/03/12 03:55:50;;;;;;;18.17;3.08;;;;;;;5.00;81.32;99410.28;5079724;28;20059;-75
2021/03/12 03:58:16;;;;;;;22.83;4.15;;;;;;;5.00;82.36;99412.94;5097668;28;20113;-76
2021/03/12 04:00:43;;;;;;;26.70;3.10;;;;;;;5.02;83.00;99408.41;5080120;28;20052;-75
2021/03/12 04:03:10;;;;;;;17.30;3.55;;;;;;;5.05;81.83;99409.22;5097603;28;20051;-76
2021/03/12 04:05:37;;;;;;;17.55;3.60;;;;;;;5.00;80.81;99420.00;5096523;28;20189;-75
2021/03/12 04:08:04;;;;;;;22.45;3.20;;;;;;;4.89;81.59;99415.25;5097379;28;20125;-76
2021/03/12 04:10:32;;;;;;;15.07;2.30;;;;;;;5.00;79.60;99415.56;5097698;28;20050;-76
2021/03/12 04:12:58;;;;;;;17.65;4.10;;;;;;;4.98;80.85;99417.44;5097649;28;20051;-76
2021/03/12 04:15:25;;;;;;;19.83;3.17;;;;;;;4.92;79.93;99411.59;5097354;28;20052;-76
2021/03/12 04:17:53;;;;;;;27.17;4.28;;;;;;;4.90;80.17;99419.59;5097651;28;20056;-75
2021/03/12 04:20:20;;;;;;;20.17;3.20;;;;;;;4.88;79.80;99422.34;5097521;28;20056;-76
2021/03/12 04:22:47;;;;;;;17.98;3.03;;;;;;;4.85;79.16;99421.63;5097474;28;20051;-75
2021/03/12 04:25:13;;;;;;;18.60;2.30;;;;;;;4.81;79.59;99420.06;5080009;28;20387;-75
2021/03/12 04:27:40;;;;;;;19.80;4.65;;;;;;;4.91;78.64;99434.56;5096333;28;20056;-76
2021/03/12 04:30:07;;;;;;;18.55;2.80;;;;;;;4.87;78.37;99425.91;5097162;28;20448;-75
2021/03/12 04:32:38;;;;;;;9.98;2.13;;;;;;;4.88;78.57;99440.84;5096987;28;20044;-75
2021/03/12 04:35:07;;;;;;;13.80;2.28;;;;;;;4.84;78.58;99443.69;5097424;28;20070;-75
2021/03/12 04:37:34;;;;;;;18.77;3.03;;;;;;;4.84;78.17;99441.03;5095966;28;20478;-75
2021/03/12 04:40:01;;;;;;;24.50;3.22;;;;;;;4.78;78.88;99430.81;5096384;28;20086;-75
2021/03/12 04:42:28;;;;;;;11.38;2.55;;;;;;;4.80;78.79;99427.13;5096568;28;20052;-75
2021/03/12 04:45:05;;;;;;;23.48;3.08;;;;;;;4.91;78.53;99434.56;5097159;28;20051;-75
2021/03/12 04:47:33;;;;;;;13.63;2.05;;;;;;;5.00;78.63;99454.38;5096837;28;20307;-75
2021/03/12 04:50:01;;;;;;;22.42;3.50;;;;;;;4.92;79.23;99438.91;5097069;28;20056;-75
2021/03/12 04:52:27;;;;;;;20.48;3.17;;;;;;;5.04;79.21;99453.31;5096637;28;20101;-75
2021/03/12 04:54:54;;;;;;;22.48;2.92;;;;;;;5.09;79.01;99453.06;5096966;28;20388;-75
2021/03/12 04:57:20;;;;;;;18.00;2.65;;;;;;;5.04;79.51;99445.38;5097104;28;20066;-76
2021/03/12 04:59:47;;;;;;;18.42;3.22;;;;;;;5.10;79.46;99460.06;5078849;28;20451;-75
2021/03/12 05:02:13;;;;;;;18.65;3.55;;;;;;;5.07;79.04;99444.38;5096357;28;20044;-75
2021/03/12 05:04:41;;;;;;;13.38;2.75;;;;;;;5.13;78.52;99463.41;5096339;28;20463;-75
2021/03/12 05:07:08;;;;;;;18.10;2.75;;;;;;;5.15;78.66;99466.88;5078423;28;20060;-75
2021/03/12 05:09:34;;;;;;;21.67;3.60;;;;;;;5.08;78.64;99465.47;5078585;28;20449;-75
2021/03/12 05:12:01;;;;;;;16.52;3.00;;;;;;;5.04;78.27;99461.25;5078591;28;20048;-75
2021/03/12 05:14:27;;;;;;;27.10;3.63;;;;;;;4.94;78.08;99457.31;5078495;28;20421;-75
2021/03/12 05:16:53;;;;;;;16.25;3.22;;;;;;;4.88;78.57;99459.34;5078429;28;20475;-76
2021/03/12 05:19:20;;;;;;;22.35;3.33;;;;;;;4.97;78.51;99468.59;5095083;28;20066;-75
2021/03/12 05:21:46;;;;;;;23.08;3.45;;;;;;;4.99;78.58;99469.41;5095302;28;20077;-75
2021/03/12 05:24:12;;;;;;;27.40;3.10;;;;;;;4.95;79.75;99472.28;5096269;28;20052;-76
2021/03/12 05:26:39;;;;;;;16.13;2.65;;;;;;;4.84;79.47;99467.50;5096095;28;20048;-75
2021/03/12 05:29:05;;;;;;;13.95;3.10;;;;;;;4.89;79.31;99478.69;5078079;28;20432;-75
2021/03/12 05:31:31;;;;;;;14.93;2.60;;;;;;;4.89;79.79;99474.28;5095837;28;20056;-75
2021/03/12 05:33:58;;;;;;;17.17;3.15;;;;;;;4.91;79.64;99468.94;5094823;28;20058;-75
2021/03/12 05:36:24;;;;;;;20.75;2.78;;;;;;;4.91;79.18;99471.56;5078028;28;20138;-75
2021/03/12 05:38:50;;;;;;;19.27;3.40;;;;;;;4.95;79.46;99470.47;5095866;28;20068;-74
2021/03/12 05:41:18;;;;;;;16.20;2.90;;;;;;;4.93;80.26;99477.63;5095812;28;20097;-75
2021/03/12 05:43:46;;;;;;;18.88;2.97;;;;;;;4.91;79.96;99476.88;5095757;28;20441;-75
2021/03/12 05:46:14;;;;;;;15.60;3.38;;;;;;;4.92;79.64;99481.22;5095736;28;20051;-74
2021/03/12 05:48:42;;;;;;;19.60;3.58;;;;;;;4.93;79.09;99475.00;5095524;28;20044;-74
2021/03/12 05:51:10;;;;;;;18.35;2.88;;;;;;;4.95;78.70;99474.94;5094690;28;20364;-74
2021/03/12 05:53:37;;;;;;;23.52;2.97;;;;;;;4.95;78.69;99496.91;5095546;28;20052;-75
2021/03/12 05:56:04;;;;;;;17.77;3.38;;;;;;;4.95;79.54;99475.75;5077453;28;20097;-75
2021/03/12 05:58:30;;;;;;;16.05;2.47;;;;;;;5.00;78.39;99479.06;5077392;28;20441;-75
2021/03/12 06:00:58;;;;;;;22.90;3.72;;;;;;;5.03;78.23;99473.59;5077604;28;20048;-75
2021/03/12 06:03:24;;;;;;;13.23;2.88;;;;;;;4.93;78.30;99468.84;5095586;28;20056;-75
2021/03/12 06:05:51;;;;;;;17.77;2.90;;;;;;;4.87;78.99;99457.66;5080622;28;20052;-75
2021/03/12 06:08:18;;;;;;;16.77;2.78;;;;;;;4.98;78.81;99472.13;5067246;28;20052;-77
2021/03/12 06:10:44;;;;;;;15.95;3.13;;;;;;;4.93;78.43;99477.63;5084201;28;20071;-75
2021/03/12 06:13:11;;;;;;;13.98;2.42;;;;;;;4.97;79.44;99470.41;5095420;28;20353;-75
2021/03/12 06:15:43;;;;;;;21.73;3.65;;;;;;;4.98;79.08;99466.81;5077621;28;20056;-75
2021/03/12 06:18:26;;;;;;;19.35;3.17;;;;;;;5.05;79.09;99478.81;5095685;28;20087;-75
2021/03/12 06:20:55;;;;;;;19.98;4.30;;;;;;;5.04;78.87;99474.47;5095354;28;20056;-75
2021/03/12 06:23:35;;;;;;;19.75;3.47;;;;;;;5.10;79.07;99479.44;5095397;28;20040;-75
2021/03/12 06:26:01;;;;;;;15.15;2.92;;;;;;;5.11;78.83;99485.59;5095252;28;20349;-75
2021/03/12 06:28:27;;;;;;;22.20;5.10;;;;;;;5.08;78.60;99477.81;5095470;28;20063;-76
2021/03/12 06:30:54;;;;;;;17.60;3.63;;;;;;;5.10;78.40;99479.44;5077675;28;20060;-75
2021/03/12 06:33:38;;;;;;;12.30;2.60;;;;;;;5.05;78.79;99483.28;5094908;28;20127;-75
2021/03/12 06:36:05;;;;;;;13.98;2.47;;;;;;;5.06;78.71;99487.63;5077191;28;20051;-73
2021/03/12 06:38:35;;;;;;;13.07;2.42;;;;;;;5.01;79.02;99491.34;5095601;28;20399;-71
2021/03/12 06:41:01;;;;;;;26.58;3.53;;;;;;;5.02;79.31;99477.19;5080089;28;20459;-79
2021/03/12 06:43:27;;;;;;;21.48;4.03;;;;;;;5.10;78.76;99497.09;5064276;28;20333;-76
2021/03/12 06:45:59;;;;;;;20.48;3.50;;;;;;;5.10;79.13;99489.16;5097835;28;20125;-75
2021/03/12 06:48:28;;;;;;;22.95;4.47;;;;;;;5.09;78.06;99487.44;5079358;28;20303;-75
2021/03/12 06:50:59;;;;;;;27.00;3.53;;;;;;;5.11;78.18;99486.44;5078050;28;20051;-77
2021/03/12 06:53:28;;;;;;;15.00;3.63;;;;;;;5.16;78.40;99495.03;5099028;28;20417;-76
2021/03/12 06:55:57;;;;;;;18.52;3.22;;;;;;;5.23;77.52;99490.28;5079942;28;20052;-76
2021/03/12 06:58:23;;;;;;;23.35;3.83;;;;;;;5.22;77.43;99475.34;5096552;28;20055;-76
2021/03/12 07:00:50;;;;;;;22.55;3.38;;;;;;;5.25;77.13;99483.13;5095652;28;20430;-75
2021/03/12 07:03:36;;;;;;;19.58;3.83;;;;;;;5.33;77.12;99495.97;5096836;28;20135;-75
2021/03/12 07:06:17;;;;;;;19.50;4.03;;;;;;;5.37;77.49;99501.97;5096424;28;20063;-78
2021/03/12 07:08:45;;;;;;;17.58;2.80;;;;;;;5.38;76.87;99487.78;5080994;28;20355;-74
2021/03/12 07:11:18;;;;;;;19.33;2.58;;;;;;;5.38;76.29;99471.91;5098710;28;20097;-74
2021/03/12 07:13:45;;;;;;;16.10;3.80;;;;;;;5.47;76.94;99497.06;5081115;28;20056;-76
2021/03/12 07:16:12;;;;;;;21.95;3.45;;;;;;;5.56;76.11;99486.88;5098838;28;20051;-76
2021/03/12 07:18:39;;;;;;;19.77;3.78;;;;;;;5.66;76.00;99502.28;5095231;28;20120;-75
2021/03/12 07:21:06;;;;;;;13.27;2.72;;;;;;;5.64;75.79;99498.84;5096864;28;20052;-76
2021/03/12 07:23:37;;;;;;;24.20;3.10;;;;;;;5.67;75.90;99509.28;5080316;28;20056;-75
2021/03/12 07:26:06;;;;;;;16.20;3.70;;;;;;;5.68;76.29;99505.72;5098392;28;20052;-75
2021/03/12 07:28:33;;;;;;;18.17;3.67;;;;;;;5.66;76.29;99495.19;5096588;28;20097;-76
2021/03/12 07:31:02;;;;;;;17.23;3.53;;;;;;;5.71;76.31;99505.53;5097529;28;20059;-75
2021/03/12 07:33:34;;;;;;;17.10;2.55;;;;;;;5.79;76.38;99516.63;5096685;28;20059;-77
2021/03/12 07:36:02;;;;;;;20.40;3.78;;;;;;;5.80;76.41;99522.75;5079503;28;20052;-75
2021/03/12 07:38:32;;;;;;;18.27;3.30;;;;;;;5.79;77.23;99519.25;5078102;28;20101;-77
2021/03/12 07:41:01;;;;;;;15.27;2.92;;;;;;;5.79;77.49;99521.91;5078056;28;20395;-75
2021/03/12 07:43:28;;;;;;;18.90;4.07;;;;;;;5.82;76.73;99515.56;5097472;28;20044;-74
2021/03/12 07:45:54;;;;;;;19.50;3.67;;;;;;;5.81;77.14;99520.03;5078719;28;20048;-75
2021/03/12 07:48:27;;;;;;;24.05;4.38;;;;;;;5.84;77.43;99522.50;5092846;28;20540;-74
2021/03/12 07:51:13;;;;;;;22.20;3.40;;;;;;;5.89;77.14;99535.50;5092967;28;20055;-75
2021/03/12 07:53:53;;;;;;;19.35;4.20;;;;;;;5.82;77.06;99534.13;5086889;28;20056;-74
2021/03/12 07:56:44;;;;;;;16.33;3.70;;;;;;;5.87;77.60;99536.56;5084394;28;20056;-75
2021/03/12 07:59:11;;;;;;;22.83;3.90;;;;;;;5.95;77.16;99534.34;5096262;28;20452;-75
2021/03/12 08:01:53;;;;;;;15.98;3.60;;;;;;;5.66;77.40;99487.25;5095104;28;20048;-75
2021/03/12 08:04:34;;;;;;;19.98;3.47;;;;;;;5.89;77.62;99524.06;5097100;28;20052;-74
2021/03/12 08:07:20;;;;;;;18.13;4.20;;;;;;;5.97;76.98;99538.63;5094722;28;20056;-76
2021/03/12 08:09:52;;;;;;;22.73;3.97;;;;;;;6.13;77.00;99544.94;5096572;28;20460;-76
2021/03/12 08:12:37;;;;;;;30.23;4.47;;;;;;;6.09;76.64;99550.41;5095937;28;20048;-76
2021/03/12 08:15:20;;;;;;;28.95;3.95;;;;;;;6.11;77.26;99551.19;5096652;28;20083;-77
2021/03/12 08:17:56;;;;;;;22.42;3.60;;;;;;;6.16;77.15;99542.16;5093194;28;20052;-75
2021/03/12 08:20:22;;;;;;;23.95;3.42;;;;;;;6.24;75.89;99539.94;5095452;28;20060;-76
2021/03/12 08:22:50;;;;;;;27.30;4.00;;;;;;;6.29;75.50;99537.91;5096062;28;20052;-76
2021/03/12 08:25:31;;;;;;;25.35;3.47;;;;;;;6.36;75.34;99538.41;5096598;28;20142;-76
2021/03/12 08:28:18;;;;;;;;;;;;;;;6.48;74.29;99544.88;5096718;28;20055;-75
2021/03/12 08:30:45;;;;;;;13.88;3.35;;;;;;;6.55;74.82;99533.00;5082283;28;19923;-76
2021/03/12 08:33:21;;;;;;;28.70;3.70;;;;;;;6.66;73.77;99537.72;5077977;28;20127;-76
2021/03/12 08:35:51;;;;;;;18.02;3.50;;;;;;;6.65;73.26;99528.88;5095536;28;20051;-76
2021/03/12 08:38:24;;;;;;;24.10;3.25;;;;;;;6.64;73.68;99534.28;5097549;28;20059;-77
2021/03/12 08:41:12;;;;;;;21.52;3.90;;;;;;;6.61;72.75;99532.66;5107771;28;20048;-76
2021/03/12 08:43:54;;;;;;;17.90;2.47;;;;;;;6.62;73.66;99515.81;5098554;28;20040;-79
2021/03/12 08:46:27;;;;;;;20.55;3.53;;;;;;;6.63;72.04;99509.56;5106100;28;20044;-76
2021/03/12 08:48:56;;;;;;;21.45;4.25;;;;;;;6.72;72.44;99545.34;5089237;28;20059;-78
2021/03/12 08:51:25;;;;;;;23.52;3.08;;;;;;;6.78;71.15;99529.09;5097405;28;20060;-76
2021/03/12 08:53:57;;;;;;;22.40;3.65;;;;;;;6.89;71.08;99528.50;5097229;28;20048;-77
2021/03/12 08:56:28;;;;;;;13.65;2.72;;;;;;;6.97;70.79;99512.13;5096840;28;20062;-76
2021/03/12 08:58:55;;;;;;;16.08;2.58;;;;;;;6.84;69.49;99501.34;5096579;28;20059;-76
2021/03/12 09:01:24;;;;;;;16.20;2.83;;;;;;;7.08;70.36;99514.16;5078844;28;20055;-76
2021/03/12 09:03:56;;;;;;;22.15;3.25;;;;;;;7.10;70.04;99530.00;5096431;28;20068;-75
2021/03/12 09:06:36;;;;;;;12.52;2.67;;;;;;;7.04;69.79;99523.25;5078798;28;20664;-77
2021/03/12 09:09:07;;;;;;;19.25;3.20;;;;;;;6.88;70.41;99508.22;5096638;28;20055;-77
2021/03/12 09:11:34;;;;;;;19.58;3.03;;;;;;;6.98;70.61;99507.69;5062381;28;20052;-75
2021/03/12 09:14:02;;;;;;;15.18;3.03;;;;;;;7.02;70.31;99506.53;5096427;28;20468;-75
2021/03/12 09:16:30;;;;;;;23.55;4.18;;;;;;;7.03;70.40;99495.00;5096289;28;20056;-75
2021/03/12 09:19:01;;;;;;;15.55;3.20;;;;;;;7.08;70.99;99498.22;5096283;28;20052;-75
2021/03/12 09:21:28;;;;;;;22.05;2.78;;;;;;;7.07;70.68;99488.56;5096232;28;20189;-77
2021/03/12 09:23:57;;;;;;;18.90;3.95;;;;;;;7.10;70.60;99493.72;5095450;28;20059;-77
2021/03/12 09:26:31;;;;;;;20.02;3.83;;;;;;;7.10;70.38;99495.50;5096108;28;20392;-76
2021/03/12 09:29:00;;;;;;;19.15;3.25;;;;;;;7.06;70.30;99486.88;5095860;28;20048;-77
2021/03/12 09:31:36;;;;;;;22.83;2.72;;;;;;;7.15;70.20;99493.44;5077840;28;20109;-78
2021/03/12 09:34:04;;;;;;;16.02;2.58;;;;;;;7.19;69.65;99489.66;5096556;28;20052;-76
2021/03/12 09:36:35;;;;;;;26.05;3.50;;;;;;;7.18;68.98;99488.81;5096179;28;20048;-75
2021/03/12 09:39:19;;;;;;;19.42;3.17;;;;;;;7.29;68.77;99479.34;5076048;28;20055;-75
2021/03/12 09:41:57;;;;;;;18.67;2.90;;;;;;;7.43;69.56;99476.78;5075539;28;20132;-75
2021/03/12 09:44:25;;;;;;;21.02;5.38;;;;;;;7.52;67.74;99487.78;5075962;28;20155;-77
2021/03/12 09:46:53;;;;;;;18.98;3.45;;;;;;;7.66;66.43;99482.50;5077354;28;20070;-76
2021/03/12 09:49:42;;;;;;;17.27;2.70;;;;;;;7.82;65.82;99486.88;5088640;28;20464;-75
2021/03/12 09:52:15;;;;;;;20.00;3.20;;;;;;;8.08;65.79;99476.47;5094680;28;20048;-77
2021/03/12 09:54:43;;;;;;;18.80;2.95;;;;;;;8.18;65.26;99474.97;5096344;28;20059;-77
2021/03/12 09:57:16;;;;;;;23.60;3.22;;;;;;;8.04;64.66;99469.63;5095863;28;20055;-80
2021/03/12 09:59:52;;;;;;;20.45;3.00;;;;;;;7.93;63.74;99468.50;5094596;28;20052;-79
2021/03/12 10:02:20;;;;;;;16.73;3.15;;;;;;;7.87;65.58;99437.00;5096737;28;20040;-77
2021/03/12 10:05:05;;;;;;;20.48;3.15;;;;;;;8.17;65.70;99475.91;5096945;28;20131;-76
2021/03/12 10:07:43;;;;;;;16.50;3.03;;;;;;;8.31;62.95;99451.13;5094981;28;20052;-80
2021/03/12 10:10:18;;;;;;;21.55;3.45;;;;;;;8.36;63.32;99461.47;5095406;28;20044;-79
2021/03/12 10:12:46;;;;;;;22.85;3.88;;;;;;;8.42;62.79;99455.75;5094901;28;20417;-78
2021/03/12 10:15:34;;;;;;;22.02;3.15;;;;;;;8.49;63.60;99465.03;5095874;28;20047;-78
2021/03/12 10:18:00;;;;;;;15.77;3.40;;;;;;;8.35;64.19;99454.44;5095939;28;20048;-79
2021/03/12 10:20:31;;;;;;;18.38;3.75;;;;;;;8.38;64.50;99454.22;5095782;28;20108;-80
2021/03/12 10:23:03;;;;;;;15.83;3.17;;;;;;;8.29;63.94;99448.56;5095913;28;20127;-77
2021/03/12 10:25:37;;;;;;;20.15;3.13;;;;;;;8.33;63.80;99443.06;5095039;28;20326;-77
2021/03/12 10:28:11;;;;;;;14.55;3.95;;;;;;;8.04;63.32;99413.81;5094900;28;20091;-76
2021/03/12 10:30:40;;;;;;;13.30;3.17;;;;;;;8.09;63.75;99427.69;5094686;28;20097;-78
2021/03/12 10:33:08;;;;;;;15.00;3.00;;;;;;;8.05;63.93;99428.84;5072767;28;20045;-76
2021/03/12 10:35:39;;;;;;;22.42;3.47;;;;;;;8.09;64.82;99422.38;5073869;28;20083;-77
2021/03/12 10:38:05;;;;;;;16.55;3.47;;;;;;;8.24;64.33;99416.06;5075129;28;20416;-74
2021/03/12 10:40:37;;;;;;;22.58;3.88;;;;;;;8.41;62.92;99411.50;5075419;28;20048;-76
2021/03/12 10:43:34;;;;;;;24.38;3.47;;;;;;;8.52;62.08;99417.03;5099027;28;20050;-78
2021/03/12 10:46:03;;;;;;;22.45;3.22;;;;;;;8.58;61.94;99398.94;5086906;28;20047;-78
2021/03/12 10:48:41;;;;;;;17.35;2.78;;;;;;;8.61;61.19;99404.06;5099199;28;20129;-76
2021/03/12 10:51:09;;;;;;;14.00;2.63;;;;;;;8.55;62.36;99400.00;5099392;28;20363;-77
2021/03/12 10:53:46;;;;;;;16.17;2.72;;;;;;;8.48;61.36;99403.97;5098010;28;20424;-77
2021/03/12 10:56:13;;;;;;;17.13;3.10;;;;;;;8.60;62.03;99387.25;5099394;28;20048;-77
2021/03/12 10:58:39;;;;;;;16.58;2.92;;;;;;;8.72;61.10;99385.59;5098868;28;20060;-76
2021/03/12 11:01:23;;;;;;;20.67;3.15;;;;;;;8.87;60.12;99399.69;5099027;28;20062;-77
2021/03/12 11:03:50;;;;;;;13.27;2.47;;;;;;;8.87;59.50;99370.41;5100162;28;20479;-76
2021/03/12 11:06:19;;;;;;;29.85;3.50;;;;;;;8.90;60.83;99377.34;5110947;28;20056;-77
2021/03/12 11:08:53;;;;;;;17.23;3.10;;;;;;;8.78;60.62;99357.75;5108599;28;20052;-77
2021/03/12 11:11:21;;;;;;;14.00;2.33;;;;;;;9.09;60.88;99374.28;5108471;28;20059;-76
2021/03/12 11:13:49;;;;;;;24.60;2.75;;;;;;;9.19;60.03;99375.41;5103112;28;20076;-77
2021/03/12 11:16:16;;;;;;;20.55;4.38;;;;;;;9.27;59.45;99363.38;5099666;28;20056;-77
2021/03/12 11:18:43;;;;;;;16.75;1.92;;;;;;;9.02;59.69;99375.66;5098243;28;20151;-78
2021/03/12 11:21:11;;;;;;;14.98;2.80;;;;;;;9.12;59.82;99359.94;5098301;28;20108;-78
2021/03/12 11:23:39;;;;;;;11.80;2.53;;;;;;;9.22;60.19;99361.84;5099617;28;20425;-78
2021/03/12 11:26:06;;;;;;;20.45;3.53;;;;;;;9.20;59.44;99366.44;5080964;28;20059;-76
2021/03/12 11:28:33;;;;;;;11.75;2.53;;;;;;;9.07;58.43;99363.78;5098185;28;20196;-76
2021/03/12 11:31:02;;;;;;;17.33;3.35;;;;;;;9.01;58.19;99353.53;5098616;28;20051;-76
2021/03/12 11:33:29;;;;;;;22.45;3.30;;;;;;;8.82;57.91;99356.56;5098084;28;20047;-77
2021/03/12 11:35:58;;;;;;;21.75;3.45;;;;;;;8.92;58.91;99343.50;5098633;28;20053;-77
2021/03/12 11:38:28;;;;;;;15.48;3.60;;;;;;;9.06;58.11;99332.75;5080758;28;20109;-77
2021/03/12 11:40:55;;;;;;;21.52;3.28;;;;;;;9.07;58.71;99331.84;5097174;28;20061;-77
2021/03/12 11:43:21;;;;;;;15.98;3.95;;;;;;;9.07;59.24;99318.53;5098349;28;20048;-77
2021/03/12 11:45:47;;;;;;;20.27;3.03;;;;;;;9.08;58.77;99352.16;5098038;28;20063;-77